sensor_id;sensor_type;location;lat;lon;timestamp;P1;durP1;ratioP1;P2;durP2;ratioP2
13891;SDS011;7016;48.172;8.058;2022-09-09T00:09:47;4.43;;;1.27;;
13891;SDS011;7016;48.172;8.058;2022-09-09T00:22:36;2.85;;;1.10;;
13891;SDS011;7016;48.172;8.058;2022-09-09T00:25:10;6.03;;;1.60;;
13891;SDS011;7016;48.172;8.058;2022-09-09T00:27:45;4.38;;;1.52;;
13891;SDS011;7016;48.172;8.058;2022-09-09T00:32:44;3.08;;;1.30;;
13891;SDS011;7016;48.172;8.058;2022-09-09T00:37:35;5.00;;;1.20;;
13891;SDS011;7016;48.172;8.058;2022-09-09T00:40:11;7.90;;;1.63;;
13891;SDS011;7016;48.172;8.058;2022-09-09T00:43:03;8.65;;;1.52;;
13891;SDS011;7016;48.172;8.058;2022-09-09T00:46:14;4.80;;;1.40;;
13891;SDS011;7016;48.172;8.058;2022-09-09T00:57:12;6.05;;;1.33;;
13891;SDS011;7016;48.172;8.058;2022-09-09T00:59:50;4.97;;;1.30;;
13891;SDS011;7016;48.172;8.058;2022-09-09T01:05:20;4.43;;;1.48;;
13891;SDS011;7016;48.172;8.058;2022-09-09T01:08:18;3.72;;;1.40;;
13891;SDS011;7016;48.172;8.058;2022-09-09T01:10:55;6.95;;;1.35;;
13891;SDS011;7016;48.172;8.058;2022-09-09T01:13:24;4.78;;;1.50;;
13891;SDS011;7016;48.172;8.058;2022-09-09T01:15:52;7.22;;;1.63;;
13891;SDS011;7016;48.172;8.058;2022-09-09T01:18:23;4.65;;;1.40;;
13891;SDS011;7016;48.172;8.058;2022-09-09T01:26:42;6.35;;;1.63;;
13891;SDS011;7016;48.172;8.058;2022-09-09T01:29:13;3.92;;;1.30;;
13891;SDS011;7016;48.172;8.058;2022-09-09T01:31:41;7.70;;;2.03;;
13891;SDS011;7016;48.172;8.058;2022-09-09T01:34:17;5.82;;;1.70;;
13891;SDS011;7016;48.172;8.058;2022-09-09T01:37:01;6.97;;;1.45;;
13891;SDS011;7016;48.172;8.058;2022-09-09T01:39:30;5.15;;;1.60;;
13891;SDS011;7016;48.172;8.058;2022-09-09T01:41:58;6.03;;;1.73;;
13891;SDS011;7016;48.172;8.058;2022-09-09T01:44:24;3.65;;;1.50;;
13891;SDS011;7016;48.172;8.058;2022-09-09T01:46:51;4.95;;;1.58;;
13891;SDS011;7016;48.172;8.058;2022-09-09T01:49:17;8.07;;;1.75;;
13891;SDS011;7016;48.172;8.058;2022-09-09T01:51:43;6.88;;;1.70;;
13891;SDS011;7016;48.172;8.058;2022-09-09T01:54:13;5.03;;;1.40;;
13891;SDS011;7016;48.172;8.058;2022-09-09T01:56:44;4.97;;;1.40;;
13891;SDS011;7016;48.172;8.058;2022-09-09T02:02:18;7.67;;;1.57;;
13891;SDS011;7016;48.172;8.058;2022-09-09T02:08:42;4.32;;;1.50;;
13891;SDS011;7016;48.172;8.058;2022-09-09T02:13:38;6.38;;;1.50;;
13891;SDS011;7016;48.172;8.058;2022-09-09T02:16:10;5.50;;;1.50;;
13891;SDS011;7016;48.172;8.058;2022-09-09T02:18:43;7.18;;;1.27;;
13891;SDS011;7016;48.172;8.058;2022-09-09T02:21:42;5.32;;;1.52;;
13891;SDS011;7016;48.172;8.058;2022-09-09T02:24:09;4.53;;;1.40;;
13891;SDS011;7016;48.172;8.058;2022-09-09T02:26:40;7.07;;;1.85;;
13891;SDS011;7016;48.172;8.058;2022-09-09T02:29:42;5.22;;;1.95;;
13891;SDS011;7016;48.172;8.058;2022-09-09T02:32:06;6.57;;;1.90;;
13891;SDS011;7016;48.172;8.058;2022-09-09T02:34:44;10.98;;;4.00;;
13891;SDS011;7016;48.172;8.058;2022-09-09T02:37:15;13.48;;;5.45;;
13891;SDS011;7016;48.172;8.058;2022-09-09T02:39:45;8.90;;;3.78;;
13891;SDS011;7016;48.172;8.058;2022-09-09T02:42:11;6.20;;;2.40;;
13891;SDS011;7016;48.172;8.058;2022-09-09T02:44:39;16.40;;;5.32;;
13891;SDS011;7016;48.172;8.058;2022-09-09T02:52:44;18.13;;;4.85;;
13891;SDS011;7016;48.172;8.058;2022-09-09T02:57:57;10.50;;;3.17;;
13891;SDS011;7016;48.172;8.058;2022-09-09T03:00:27;12.85;;;4.05;;
13891;SDS011;7016;48.172;8.058;2022-09-09T03:02:53;15.30;;;4.55;;
13891;SDS011;7016;48.172;8.058;2022-09-09T03:05:20;13.32;;;4.00;;
13891;SDS011;7016;48.172;8.058;2022-09-09T03:07:46;13.10;;;4.13;;
13891;SDS011;7016;48.172;8.058;2022-09-09T03:10:12;16.27;;;3.72;;
13891;SDS011;7016;48.172;8.058;2022-09-09T03:12:38;9.75;;;3.47;;
13891;SDS011;7016;48.172;8.058;2022-09-09T03:15:05;14.10;;;3.88;;
13891;SDS011;7016;48.172;8.058;2022-09-09T03:17:31;13.15;;;3.88;;
13891;SDS011;7016;48.172;8.058;2022-09-09T03:19:57;10.95;;;3.42;;
13891;SDS011;7016;48.172;8.058;2022-09-09T03:22:24;14.38;;;4.18;;
13891;SDS011;7016;48.172;8.058;2022-09-09T03:24:50;9.82;;;3.10;;
13891;SDS011;7016;48.172;8.058;2022-09-09T03:27:17;9.73;;;3.30;;
13891;SDS011;7016;48.172;8.058;2022-09-09T03:29:44;8.45;;;3.08;;
13891;SDS011;7016;48.172;8.058;2022-09-09T03:32:11;9.45;;;2.95;;
13891;SDS011;7016;48.172;8.058;2022-09-09T03:34:37;7.75;;;2.10;;
13891;SDS011;7016;48.172;8.058;2022-09-09T03:37:05;11.82;;;2.65;;
13891;SDS011;7016;48.172;8.058;2022-09-09T03:39:31;13.88;;;2.70;;
13891;SDS011;7016;48.172;8.058;2022-09-09T03:41:57;9.82;;;2.50;;
13891;SDS011;7016;48.172;8.058;2022-09-09T03:44:22;7.07;;;2.35;;
13891;SDS011;7016;48.172;8.058;2022-09-09T03:46:48;8.15;;;2.38;;
13891;SDS011;7016;48.172;8.058;2022-09-09T03:49:14;8.05;;;2.00;;
13891;SDS011;7016;48.172;8.058;2022-09-09T03:51:40;9.52;;;2.38;;
13891;SDS011;7016;48.172;8.058;2022-09-09T03:54:06;5.32;;;1.75;;
13891;SDS011;7016;48.172;8.058;2022-09-09T03:56:35;5.95;;;1.77;;
13891;SDS011;7016;48.172;8.058;2022-09-09T03:59:01;5.22;;;1.52;;
13891;SDS011;7016;48.172;8.058;2022-09-09T04:01:27;7.00;;;1.85;;
13891;SDS011;7016;48.172;8.058;2022-09-09T04:03:53;8.57;;;1.60;;
13891;SDS011;7016;48.172;8.058;2022-09-09T04:06:22;5.13;;;2.00;;
13891;SDS011;7016;48.172;8.058;2022-09-09T04:08:48;7.63;;;1.63;;
13891;SDS011;7016;48.172;8.058;2022-09-09T04:11:14;4.18;;;1.48;;
13891;SDS011;7016;48.172;8.058;2022-09-09T04:13:40;7.18;;;1.80;;
13891;SDS011;7016;48.172;8.058;2022-09-09T04:16:06;5.85;;;1.80;;
13891;SDS011;7016;48.172;8.058;2022-09-09T04:18:35;6.25;;;2.15;;
13891;SDS011;7016;48.172;8.058;2022-09-09T04:21:01;8.35;;;1.80;;
13891;SDS011;7016;48.172;8.058;2022-09-09T04:23:28;6.78;;;2.03;;
13891;SDS011;7016;48.172;8.058;2022-09-09T04:25:54;10.02;;;2.13;;
13891;SDS011;7016;48.172;8.058;2022-09-09T04:28:22;8.45;;;1.90;;
13891;SDS011;7016;48.172;8.058;2022-09-09T04:30:49;6.55;;;1.90;;
13891;SDS011;7016;48.172;8.058;2022-09-09T04:33:15;8.23;;;1.95;;
13891;SDS011;7016;48.172;8.058;2022-09-09T04:35:45;6.38;;;2.15;;
13891;SDS011;7016;48.172;8.058;2022-09-09T04:38:16;7.22;;;1.80;;
13891;SDS011;7016;48.172;8.058;2022-09-09T04:40:43;4.68;;;1.95;;
13891;SDS011;7016;48.172;8.058;2022-09-09T04:43:11;9.43;;;1.90;;
13891;SDS011;7016;48.172;8.058;2022-09-09T04:45:39;13.02;;;2.00;;
13891;SDS011;7016;48.172;8.058;2022-09-09T04:48:05;6.50;;;1.83;;
13891;SDS011;7016;48.172;8.058;2022-09-09T04:50:32;9.68;;;2.20;;
13891;SDS011;7016;48.172;8.058;2022-09-09T04:53:01;12.68;;;2.47;;
13891;SDS011;7016;48.172;8.058;2022-09-09T04:55:27;7.20;;;2.20;;
13891;SDS011;7016;48.172;8.058;2022-09-09T04:57:55;5.78;;;2.20;;
13891;SDS011;7016;48.172;8.058;2022-09-09T05:00:22;4.53;;;1.92;;
13891;SDS011;7016;48.172;8.058;2022-09-09T05:02:48;5.88;;;1.98;;
13891;SDS011;7016;48.172;8.058;2022-09-09T05:05:14;7.93;;;2.00;;
13891;SDS011;7016;48.172;8.058;2022-09-09T05:07:40;7.20;;;1.92;;
13891;SDS011;7016;48.172;8.058;2022-09-09T05:10:06;6.07;;;2.40;;
13891;SDS011;7016;48.172;8.058;2022-09-09T05:12:33;7.45;;;2.20;;
13891;SDS011;7016;48.172;8.058;2022-09-09T05:14:58;8.80;;;2.47;;
13891;SDS011;7016;48.172;8.058;2022-09-09T05:17:24;8.40;;;2.10;;
13891;SDS011;7016;48.172;8.058;2022-09-09T05:19:50;5.43;;;1.80;;
13891;SDS011;7016;48.172;8.058;2022-09-09T05:22:21;5.97;;;1.70;;
13891;SDS011;7016;48.172;8.058;2022-09-09T05:24:48;10.98;;;2.67;;
13891;SDS011;7016;48.172;8.058;2022-09-09T05:27:18;8.65;;;2.17;;
13891;SDS011;7016;48.172;8.058;2022-09-09T05:29:47;6.45;;;2.15;;
13891;SDS011;7016;48.172;8.058;2022-09-09T05:32:13;7.38;;;1.67;;
13891;SDS011;7016;48.172;8.058;2022-09-09T05:34:41;4.95;;;1.95;;
13891;SDS011;7016;48.172;8.058;2022-09-09T05:37:06;8.57;;;2.22;;
13891;SDS011;7016;48.172;8.058;2022-09-09T05:39:33;7.00;;;2.30;;
13891;SDS011;7016;48.172;8.058;2022-09-09T05:41:59;11.20;;;2.10;;
13891;SDS011;7016;48.172;8.058;2022-09-09T05:44:24;8.10;;;2.05;;
13891;SDS011;7016;48.172;8.058;2022-09-09T05:46:52;10.43;;;2.08;;
13891;SDS011;7016;48.172;8.058;2022-09-09T05:49:19;8.82;;;1.92;;
13891;SDS011;7016;48.172;8.058;2022-09-09T05:51:46;5.90;;;1.73;;
13891;SDS011;7016;48.172;8.058;2022-09-09T05:54:13;9.02;;;2.20;;
13891;SDS011;7016;48.172;8.058;2022-09-09T05:56:40;9.55;;;2.50;;
13891;SDS011;7016;48.172;8.058;2022-09-09T05:59:06;6.55;;;1.77;;
13891;SDS011;7016;48.172;8.058;2022-09-09T06:01:33;14.18;;;4.50;;
13891;SDS011;7016;48.172;8.058;2022-09-09T06:04:00;8.68;;;2.63;;
13891;SDS011;7016;48.172;8.058;2022-09-09T06:06:26;6.40;;;1.92;;
13891;SDS011;7016;48.172;8.058;2022-09-09T06:08:56;5.50;;;1.65;;
13891;SDS011;7016;48.172;8.058;2022-09-09T06:11:27;9.02;;;2.22;;
13891;SDS011;7016;48.172;8.058;2022-09-09T06:13:56;30.83;;;17.33;;
13891;SDS011;7016;48.172;8.058;2022-09-09T06:16:23;25.55;;;13.30;;
13891;SDS011;7016;48.172;8.058;2022-09-09T06:18:50;17.77;;;9.15;;
13891;SDS011;7016;48.172;8.058;2022-09-09T06:21:22;11.40;;;4.68;;
13891;SDS011;7016;48.172;8.058;2022-09-09T06:23:58;8.52;;;2.97;;
13891;SDS011;7016;48.172;8.058;2022-09-09T06:26:29;11.98;;;4.43;;
13891;SDS011;7016;48.172;8.058;2022-09-09T06:29:13;12.45;;;3.50;;
13891;SDS011;7016;48.172;8.058;2022-09-09T06:31:39;9.13;;;2.05;;
13891;SDS011;7016;48.172;8.058;2022-09-09T06:34:06;16.45;;;2.15;;
13891;SDS011;7016;48.172;8.058;2022-09-09T06:36:34;6.78;;;1.77;;
13891;SDS011;7016;48.172;8.058;2022-09-09T06:39:02;7.47;;;1.98;;
13891;SDS011;7016;48.172;8.058;2022-09-09T06:41:29;7.47;;;1.77;;
13891;SDS011;7016;48.172;8.058;2022-09-09T06:43:56;8.45;;;1.90;;
13891;SDS011;7016;48.172;8.058;2022-09-09T06:46:23;5.15;;;1.48;;
13891;SDS011;7016;48.172;8.058;2022-09-09T06:48:54;9.43;;;1.95;;
13891;SDS011;7016;48.172;8.058;2022-09-09T06:51:23;9.23;;;2.20;;
13891;SDS011;7016;48.172;8.058;2022-09-09T06:53:51;9.07;;;1.75;;
13891;SDS011;7016;48.172;8.058;2022-09-09T06:58:58;6.28;;;1.98;;
13891;SDS011;7016;48.172;8.058;2022-09-09T07:01:30;10.88;;;2.47;;
13891;SDS011;7016;48.172;8.058;2022-09-09T07:03:57;9.05;;;1.70;;
13891;SDS011;7016;48.172;8.058;2022-09-09T07:08:52;5.00;;;1.65;;
13891;SDS011;7016;48.172;8.058;2022-09-09T07:11:20;6.15;;;1.60;;
13891;SDS011;7016;48.172;8.058;2022-09-09T07:13:47;6.32;;;1.75;;
13891;SDS011;7016;48.172;8.058;2022-09-09T07:16:15;6.35;;;1.55;;
13891;SDS011;7016;48.172;8.058;2022-09-09T07:18:43;7.60;;;1.52;;
13891;SDS011;7016;48.172;8.058;2022-09-09T07:21:09;4.28;;;1.10;;
13891;SDS011;7016;48.172;8.058;2022-09-09T07:23:37;6.13;;;1.40;;
13891;SDS011;7016;48.172;8.058;2022-09-09T07:26:07;4.78;;;1.45;;
13891;SDS011;7016;48.172;8.058;2022-09-09T07:28:38;5.25;;;1.30;;
13891;SDS011;7016;48.172;8.058;2022-09-09T07:31:06;8.82;;;1.60;;
13891;SDS011;7016;48.172;8.058;2022-09-09T07:33:33;6.43;;;1.50;;
13891;SDS011;7016;48.172;8.058;2022-09-09T07:36:07;10.45;;;1.73;;
13891;SDS011;7016;48.172;8.058;2022-09-09T07:38:48;4.07;;;1.30;;
13891;SDS011;7016;48.172;8.058;2022-09-09T07:41:26;9.05;;;1.75;;
13891;SDS011;7016;48.172;8.058;2022-09-09T07:43:54;10.18;;;1.65;;
13891;SDS011;7016;48.172;8.058;2022-09-09T07:46:20;8.90;;;1.50;;
13891;SDS011;7016;48.172;8.058;2022-09-09T07:48:48;5.80;;;1.25;;
13891;SDS011;7016;48.172;8.058;2022-09-09T07:51:19;5.85;;;1.40;;
13891;SDS011;7016;48.172;8.058;2022-09-09T07:53:47;6.63;;;1.35;;
13891;SDS011;7016;48.172;8.058;2022-09-09T07:56:15;9.25;;;1.95;;
13891;SDS011;7016;48.172;8.058;2022-09-09T07:58:41;9.63;;;1.70;;
13891;SDS011;7016;48.172;8.058;2022-09-09T08:01:10;5.75;;;1.10;;
13891;SDS011;7016;48.172;8.058;2022-09-09T08:03:42;6.70;;;1.40;;
13891;SDS011;7016;48.172;8.058;2022-09-09T08:06:09;5.55;;;1.25;;
13891;SDS011;7016;48.172;8.058;2022-09-09T08:08:35;7.97;;;1.73;;
13891;SDS011;7016;48.172;8.058;2022-09-09T08:11:07;8.07;;;1.27;;
13891;SDS011;7016;48.172;8.058;2022-09-09T08:13:41;11.27;;;1.70;;
13891;SDS011;7016;48.172;8.058;2022-09-09T08:16:12;11.65;;;1.88;;
13891;SDS011;7016;48.172;8.058;2022-09-09T08:18:40;9.70;;;2.03;;
13891;SDS011;7016;48.172;8.058;2022-09-09T08:21:11;9.80;;;1.98;;
13891;SDS011;7016;48.172;8.058;2022-09-09T08:23:41;6.55;;;1.30;;
13891;SDS011;7016;48.172;8.058;2022-09-09T08:26:18;6.68;;;1.52;;
13891;SDS011;7016;48.172;8.058;2022-09-09T08:28:47;6.03;;;1.33;;
13891;SDS011;7016;48.172;8.058;2022-09-09T08:31:21;9.75;;;1.75;;
13891;SDS011;7016;48.172;8.058;2022-09-09T08:33:49;9.85;;;1.88;;
13891;SDS011;7016;48.172;8.058;2022-09-09T08:36:16;10.20;;;1.65;;
13891;SDS011;7016;48.172;8.058;2022-09-09T08:38:47;4.53;;;1.30;;
13891;SDS011;7016;48.172;8.058;2022-09-09T08:55:51;6.80;;;1.27;;
13891;SDS011;7016;48.172;8.058;2022-09-09T09:03:56;8.45;;;1.70;;
13891;SDS011;7016;48.172;8.058;2022-09-09T09:09:27;9.57;;;1.88;;
13891;SDS011;7016;48.172;8.058;2022-09-09T09:12:15;8.88;;;1.60;;
13891;SDS011;7016;48.172;8.058;2022-09-09T09:14:43;7.70;;;1.40;;
13891;SDS011;7016;48.172;8.058;2022-09-09T09:17:13;6.90;;;1.25;;
13891;SDS011;7016;48.172;8.058;2022-09-09T09:19:42;3.63;;;1.00;;
13891;SDS011;7016;48.172;8.058;2022-09-09T09:24:56;8.13;;;1.65;;
13891;SDS011;7016;48.172;8.058;2022-09-09T09:30:12;4.60;;;1.13;;
13891;SDS011;7016;48.172;8.058;2022-09-09T09:32:40;6.22;;;1.02;;
13891;SDS011;7016;48.172;8.058;2022-09-09T09:35:13;4.30;;;1.20;;
13891;SDS011;7016;48.172;8.058;2022-09-09T09:37:40;6.20;;;1.55;;
13891;SDS011;7016;48.172;8.058;2022-09-09T09:40:12;5.25;;;1.70;;
13891;SDS011;7016;48.172;8.058;2022-09-09T09:45:35;8.48;;;1.35;;
13891;SDS011;7016;48.172;8.058;2022-09-09T09:48:11;10.07;;;1.58;;
13891;SDS011;7016;48.172;8.058;2022-09-09T09:50:55;6.57;;;1.70;;
13891;SDS011;7016;48.172;8.058;2022-09-09T09:58:33;7.07;;;1.27;;
13891;SDS011;7016;48.172;8.058;2022-09-09T10:01:02;7.43;;;1.70;;
13891;SDS011;7016;48.172;8.058;2022-09-09T10:03:29;7.65;;;1.40;;
13891;SDS011;7016;48.172;8.058;2022-09-09T10:05:57;8.98;;;1.50;;
13891;SDS011;7016;48.172;8.058;2022-09-09T10:08:26;4.70;;;1.40;;
13891;SDS011;7016;48.172;8.058;2022-09-09T10:11:06;6.45;;;1.58;;
13891;SDS011;7016;48.172;8.058;2022-09-09T10:13:41;7.95;;;1.90;;
13891;SDS011;7016;48.172;8.058;2022-09-09T10:19:37;5.03;;;1.20;;
13891;SDS011;7016;48.172;8.058;2022-09-09T10:31:09;10.43;;;1.83;;
13891;SDS011;7016;48.172;8.058;2022-09-09T10:34:01;5.55;;;1.45;;
13891;SDS011;7016;48.172;8.058;2022-09-09T10:36:28;5.38;;;1.38;;
13891;SDS011;7016;48.172;8.058;2022-09-09T10:38:59;2.85;;;1.10;;
13891;SDS011;7016;48.172;8.058;2022-09-09T10:46:54;5.22;;;1.45;;
13891;SDS011;7016;48.172;8.058;2022-09-09T10:57:31;10.30;;;2.30;;
13891;SDS011;7016;48.172;8.058;2022-09-09T11:00:05;11.68;;;2.70;;
13891;SDS011;7016;48.172;8.058;2022-09-09T11:02:39;16.33;;;2.03;;
13891;SDS011;7016;48.172;8.058;2022-09-09T11:05:20;13.43;;;1.92;;
13891;SDS011;7016;48.172;8.058;2022-09-09T11:07:54;9.48;;;1.77;;
13891;SDS011;7016;48.172;8.058;2022-09-09T11:13:15;10.85;;;1.70;;
13891;SDS011;7016;48.172;8.058;2022-09-09T11:16:52;12.05;;;1.75;;
13891;SDS011;7016;48.172;8.058;2022-09-09T11:18:55;7.57;;;1.40;;
13891;SDS011;7016;48.172;8.058;2022-09-09T11:21:36;9.25;;;1.80;;
13891;SDS011;7016;48.172;8.058;2022-09-09T11:24:14;11.82;;;2.38;;
13891;SDS011;7016;48.172;8.058;2022-09-09T11:26:46;10.85;;;2.45;;
13891;SDS011;7016;48.172;8.058;2022-09-09T11:29:26;10.85;;;2.33;;
13891;SDS011;7016;48.172;8.058;2022-09-09T11:32:22;10.35;;;2.25;;
13891;SDS011;7016;48.172;8.058;2022-09-09T11:40:23;5.75;;;1.42;;
13891;SDS011;7016;48.172;8.058;2022-09-09T11:43:00;8.15;;;1.25;;
13891;SDS011;7016;48.172;8.058;2022-09-09T11:45:34;7.70;;;1.17;;
13891;SDS011;7016;48.172;8.058;2022-09-09T11:48:02;3.40;;;1.20;;
13891;SDS011;7016;48.172;8.058;2022-09-09T11:50:34;4.78;;;1.02;;
13891;SDS011;7016;48.172;8.058;2022-09-09T11:55:42;4.32;;;0.90;;
13891;SDS011;7016;48.172;8.058;2022-09-09T12:00:40;7.82;;;1.58;;
13891;SDS011;7016;48.172;8.058;2022-09-09T12:06:27;5.97;;;1.20;;
13891;SDS011;7016;48.172;8.058;2022-09-09T12:08:58;5.93;;;1.45;;
13891;SDS011;7016;48.172;8.058;2022-09-09T12:11:43;5.85;;;1.60;;
13891;SDS011;7016;48.172;8.058;2022-09-09T12:14:19;6.00;;;1.15;;
13891;SDS011;7016;48.172;8.058;2022-09-09T12:17:09;7.82;;;1.38;;
13891;SDS011;7016;48.172;8.058;2022-09-09T12:19:44;6.60;;;1.33;;
13891;SDS011;7016;48.172;8.058;2022-09-09T12:25:18;6.45;;;1.20;;
13891;SDS011;7016;48.172;8.058;2022-09-09T12:30:31;7.53;;;1.15;;
13891;SDS011;7016;48.172;8.058;2022-09-09T12:33:33;4.00;;;1.10;;
13891;SDS011;7016;48.172;8.058;2022-09-09T12:36:00;7.87;;;1.13;;
13891;SDS011;7016;48.172;8.058;2022-09-09T12:38:37;5.40;;;0.90;;
13891;SDS011;7016;48.172;8.058;2022-09-09T12:41:05;7.63;;;1.15;;
13891;SDS011;7016;48.172;8.058;2022-09-09T12:43:31;7.05;;;1.10;;
13891;SDS011;7016;48.172;8.058;2022-09-09T12:46:03;10.23;;;1.70;;
13891;SDS011;7016;48.172;8.058;2022-09-09T12:48:36;5.30;;;1.10;;
13891;SDS011;7016;48.172;8.058;2022-09-09T12:51:05;9.25;;;1.45;;
13891;SDS011;7016;48.172;8.058;2022-09-09T12:53:42;4.28;;;0.90;;
13891;SDS011;7016;48.172;8.058;2022-09-09T12:56:17;6.25;;;1.50;;
13891;SDS011;7016;48.172;8.058;2022-09-09T12:58:46;6.55;;;1.45;;
13891;SDS011;7016;48.172;8.058;2022-09-09T13:01:21;9.38;;;1.58;;
13891;SDS011;7016;48.172;8.058;2022-09-09T13:06:27;6.30;;;1.45;;
13891;SDS011;7016;48.172;8.058;2022-09-09T13:08:55;8.32;;;1.35;;
13891;SDS011;7016;48.172;8.058;2022-09-09T13:13:54;6.15;;;1.23;;
13891;SDS011;7016;48.172;8.058;2022-09-09T13:16:29;4.05;;;1.20;;
13891;SDS011;7016;48.172;8.058;2022-09-09T13:19:00;5.03;;;1.23;;
13891;SDS011;7016;48.172;8.058;2022-09-09T13:21:41;7.57;;;1.20;;
13891;SDS011;7016;48.172;8.058;2022-09-09T13:27:04;4.35;;;1.05;;
13891;SDS011;7016;48.172;8.058;2022-09-09T13:29:52;6.07;;;1.20;;
13891;SDS011;7016;48.172;8.058;2022-09-09T13:32:23;5.95;;;1.00;;
13891;SDS011;7016;48.172;8.058;2022-09-09T13:34:52;6.70;;;1.00;;
13891;SDS011;7016;48.172;8.058;2022-09-09T13:39:52;4.97;;;0.95;;
13891;SDS011;7016;48.172;8.058;2022-09-09T13:42:21;7.32;;;0.90;;
13891;SDS011;7016;48.172;8.058;2022-09-09T13:44:54;6.30;;;1.25;;
13891;SDS011;7016;48.172;8.058;2022-09-09T13:47:21;5.00;;;1.23;;
13891;SDS011;7016;48.172;8.058;2022-09-09T13:50:44;5.85;;;1.38;;
13891;SDS011;7016;48.172;8.058;2022-09-09T13:52:52;5.18;;;1.35;;
13891;SDS011;7016;48.172;8.058;2022-09-09T13:55:20;5.78;;;1.33;;
13891;SDS011;7016;48.172;8.058;2022-09-09T13:58:05;7.45;;;1.33;;
13891;SDS011;7016;48.172;8.058;2022-09-09T14:00:32;10.73;;;1.93;;
13891;SDS011;7016;48.172;8.058;2022-09-09T14:02:59;5.50;;;1.05;;
13891;SDS011;7016;48.172;8.058;2022-09-09T14:05:29;6.43;;;1.20;;
13891;SDS011;7016;48.172;8.058;2022-09-09T14:07:57;4.32;;;1.15;;
13891;SDS011;7016;48.172;8.058;2022-09-09T14:10:23;4.75;;;0.95;;
13891;SDS011;7016;48.172;8.058;2022-09-09T14:12:48;8.35;;;1.02;;
13891;SDS011;7016;48.172;8.058;2022-09-09T14:15:14;3.50;;;0.80;;
13891;SDS011;7016;48.172;8.058;2022-09-09T14:17:41;4.32;;;1.45;;
13891;SDS011;7016;48.172;8.058;2022-09-09T14:20:07;3.78;;;1.00;;
13891;SDS011;7016;48.172;8.058;2022-09-09T14:22:36;2.63;;;0.80;;
13891;SDS011;7016;48.172;8.058;2022-09-09T14:25:04;3.17;;;0.82;;
13891;SDS011;7016;48.172;8.058;2022-09-09T14:27:31;5.43;;;1.17;;
13891;SDS011;7016;48.172;8.058;2022-09-09T14:29:57;3.33;;;1.00;;
13891;SDS011;7016;48.172;8.058;2022-09-09T14:32:25;4.47;;;0.70;;
13891;SDS011;7016;48.172;8.058;2022-09-09T14:34:51;3.75;;;0.80;;
13891;SDS011;7016;48.172;8.058;2022-09-09T14:37:17;2.03;;;0.80;;
13891;SDS011;7016;48.172;8.058;2022-09-09T14:39:43;3.80;;;1.00;;
13891;SDS011;7016;48.172;8.058;2022-09-09T14:42:10;4.30;;;1.20;;
13891;SDS011;7016;48.172;8.058;2022-09-09T14:44:36;3.30;;;0.90;;
13891;SDS011;7016;48.172;8.058;2022-09-09T14:47:03;5.60;;;1.10;;
13891;SDS011;7016;48.172;8.058;2022-09-09T14:49:33;5.78;;;0.80;;
13891;SDS011;7016;48.172;8.058;2022-09-09T14:51:59;2.10;;;0.60;;
13891;SDS011;7016;48.172;8.058;2022-09-09T14:54:25;3.53;;;0.88;;
13891;SDS011;7016;48.172;8.058;2022-09-09T14:56:51;4.55;;;1.00;;
13891;SDS011;7016;48.172;8.058;2022-09-09T14:59:17;2.40;;;0.77;;
13891;SDS011;7016;48.172;8.058;2022-09-09T15:01:43;7.75;;;0.80;;
13891;SDS011;7016;48.172;8.058;2022-09-09T15:04:10;5.10;;;0.70;;
13891;SDS011;7016;48.172;8.058;2022-09-09T15:06:39;5.22;;;1.10;;
13891;SDS011;7016;48.172;8.058;2022-09-09T15:09:07;3.97;;;1.08;;
13891;SDS011;7016;48.172;8.058;2022-09-09T15:11:35;3.00;;;1.00;;
13891;SDS011;7016;48.172;8.058;2022-09-09T15:14:05;2.80;;;0.93;;
13891;SDS011;7016;48.172;8.058;2022-09-09T15:16:32;6.95;;;1.20;;
13891;SDS011;7016;48.172;8.058;2022-09-09T15:18:58;4.35;;;1.10;;
13891;SDS011;7016;48.172;8.058;2022-09-09T15:21:29;4.47;;;1.33;;
13891;SDS011;7016;48.172;8.058;2022-09-09T15:23:57;5.18;;;1.00;;
13891;SDS011;7016;48.172;8.058;2022-09-09T15:26:23;13.52;;;2.00;;
13891;SDS011;7016;48.172;8.058;2022-09-09T15:28:49;6.38;;;0.80;;
13891;SDS011;7016;48.172;8.058;2022-09-09T15:31:19;3.78;;;0.80;;
13891;SDS011;7016;48.172;8.058;2022-09-09T15:33:48;3.13;;;0.93;;
13891;SDS011;7016;48.172;8.058;2022-09-09T15:36:30;5.60;;;1.00;;
13891;SDS011;7016;48.172;8.058;2022-09-09T15:39:02;5.10;;;1.15;;
13891;SDS011;7016;48.172;8.058;2022-09-09T15:41:29;5.00;;;1.15;;
13891;SDS011;7016;48.172;8.058;2022-09-09T15:43:56;3.72;;;0.95;;
13891;SDS011;7016;48.172;8.058;2022-09-09T15:46:33;4.75;;;1.10;;
13891;SDS011;7016;48.172;8.058;2022-09-09T15:49:11;3.05;;;1.08;;
13891;SDS011;7016;48.172;8.058;2022-09-09T15:51:39;5.05;;;1.10;;
13891;SDS011;7016;48.172;8.058;2022-09-09T15:54:10;5.80;;;1.02;;
13891;SDS011;7016;48.172;8.058;2022-09-09T15:57:04;5.93;;;1.20;;
13891;SDS011;7016;48.172;8.058;2022-09-09T15:59:45;4.53;;;1.00;;
13891;SDS011;7016;48.172;8.058;2022-09-09T16:02:11;5.22;;;1.17;;
13891;SDS011;7016;48.172;8.058;2022-09-09T16:04:37;4.88;;;1.05;;
13891;SDS011;7016;48.172;8.058;2022-09-09T16:07:03;8.00;;;1.20;;
13891;SDS011;7016;48.172;8.058;2022-09-09T16:09:30;4.28;;;0.98;;
13891;SDS011;7016;48.172;8.058;2022-09-09T16:11:58;2.67;;;0.80;;
13891;SDS011;7016;48.172;8.058;2022-09-09T16:14:31;3.28;;;0.70;;
13891;SDS011;7016;48.172;8.058;2022-09-09T16:17:00;2.90;;;1.05;;
13891;SDS011;7016;48.172;8.058;2022-09-09T16:19:30;4.95;;;1.00;;
13891;SDS011;7016;48.172;8.058;2022-09-09T16:21:57;10.15;;;1.15;;
13891;SDS011;7016;48.172;8.058;2022-09-09T16:24:23;3.28;;;0.82;;
13891;SDS011;7016;48.172;8.058;2022-09-09T16:26:50;4.13;;;0.90;;
13891;SDS011;7016;48.172;8.058;2022-09-09T16:29:18;4.70;;;1.17;;
13891;SDS011;7016;48.172;8.058;2022-09-09T16:31:45;3.47;;;1.00;;
13891;SDS011;7016;48.172;8.058;2022-09-09T16:34:11;5.57;;;1.10;;
13891;SDS011;7016;48.172;8.058;2022-09-09T16:36:38;3.45;;;0.90;;
13891;SDS011;7016;48.172;8.058;2022-09-09T16:39:06;3.78;;;0.90;;
13891;SDS011;7016;48.172;8.058;2022-09-09T16:41:36;7.10;;;1.08;;
13891;SDS011;7016;48.172;8.058;2022-09-09T16:44:04;3.28;;;0.95;;
13891;SDS011;7016;48.172;8.058;2022-09-09T16:46:35;2.80;;;0.70;;
13891;SDS011;7016;48.172;8.058;2022-09-09T16:49:06;3.45;;;0.65;;
13891;SDS011;7016;48.172;8.058;2022-09-09T16:51:34;3.67;;;1.00;;
13891;SDS011;7016;48.172;8.058;2022-09-09T16:54:05;3.53;;;0.90;;
13891;SDS011;7016;48.172;8.058;2022-09-09T16:56:33;4.07;;;0.80;;
13891;SDS011;7016;48.172;8.058;2022-09-09T16:59:02;7.57;;;1.10;;
13891;SDS011;7016;48.172;8.058;2022-09-09T17:01:31;4.50;;;1.10;;
13891;SDS011;7016;48.172;8.058;2022-09-09T17:04:03;2.95;;;0.95;;
13891;SDS011;7016;48.172;8.058;2022-09-09T17:06:31;4.90;;;0.95;;
13891;SDS011;7016;48.172;8.058;2022-09-09T17:09:03;2.58;;;0.88;;
13891;SDS011;7016;48.172;8.058;2022-09-09T17:11:31;3.92;;;1.17;;
13891;SDS011;7016;48.172;8.058;2022-09-09T17:13:58;5.30;;;1.20;;
13891;SDS011;7016;48.172;8.058;2022-09-09T17:16:26;5.93;;;1.35;;
13891;SDS011;7016;48.172;8.058;2022-09-09T17:18:53;4.63;;;1.13;;
13891;SDS011;7016;48.172;8.058;2022-09-09T17:21:21;5.82;;;1.25;;
13891;SDS011;7016;48.172;8.058;2022-09-09T17:23:48;4.68;;;1.05;;
13891;SDS011;7016;48.172;8.058;2022-09-09T17:26:16;10.07;;;1.40;;
13891;SDS011;7016;48.172;8.058;2022-09-09T17:28:43;2.63;;;0.90;;
13891;SDS011;7016;48.172;8.058;2022-09-09T17:31:11;4.82;;;1.17;;
13891;SDS011;7016;48.172;8.058;2022-09-09T17:33:40;6.97;;;1.13;;
13891;SDS011;7016;48.172;8.058;2022-09-09T17:39:18;4.43;;;1.23;;
13891;SDS011;7016;48.172;8.058;2022-09-09T17:41:54;6.70;;;1.17;;
13891;SDS011;7016;48.172;8.058;2022-09-09T17:44:19;3.05;;;0.85;;
13891;SDS011;7016;48.172;8.058;2022-09-09T17:46:45;3.88;;;1.10;;
13891;SDS011;7016;48.172;8.058;2022-09-09T17:49:12;4.82;;;1.30;;
13891;SDS011;7016;48.172;8.058;2022-09-09T17:51:40;3.60;;;1.10;;
13891;SDS011;7016;48.172;8.058;2022-09-09T17:54:08;6.13;;;1.17;;
13891;SDS011;7016;48.172;8.058;2022-09-09T17:56:42;4.43;;;1.60;;
13891;SDS011;7016;48.172;8.058;2022-09-09T17:59:10;5.50;;;1.90;;
13891;SDS011;7016;48.172;8.058;2022-09-09T18:01:40;4.47;;;1.40;;